Terminal Aerodrome Forecast
Issued by NWS Paducah, KY

Home | Current Version | Previous Version | Text Only | Print | Product List | Glossary Off
Versions: 1 2 3 4 5 6 7 8 9 10 11 12 13

000
FTUS43 KPAH 221120
TAFEVV
TAF
KEVV 221120Z 2212/2312 00000KT P6SM SCT080
      TEMPO 2212/2213 3SM BR
     FM221400 VRB03KT P6SM FEW035
     FM221700 09005KT P6SM SCT045 BKN250
     FM230000 00000KT P6SM SCT250
      TEMPO 2310/2312 4SM BR=

USA.gov is the U.S. government's official web portal to all federal, state and local government web resources and services.